Time;durP1;ratioP1;P1;durP2;ratioP2;P2;SDS_P1;SDS_P2;PMS_P1;PMS_P2;Temp;Humidity;BMP_temperature;BMP_pressure;BME280_temperature;BME280_humidity;BME280_pressure;Samples;Min_cycle;Max_cycle;Signal;HPM_P1;HPM_P2
2021/10/23 00:00:48;;;;;;;;;10.00;7.25;;;;;21.43;41.82;102276.84;5002326;28;51150;-45
2021/10/23 00:03:13;;;;;;;;;14.00;9.25;;;;;21.41;41.56;102279.78;5005685;28;51152;-46
2021/10/23 00:05:38;;;;;;;;;9.75;8.00;;;;;21.40;41.95;102274.47;5006134;28;52085;-46
2021/10/23 00:08:04;;;;;;;;;10.50;7.50;;;;;21.39;41.55;102268.13;5005456;28;51258;-46
2021/10/23 00:10:30;;;;;;;;;7.25;7.25;;;;;21.38;42.02;102265.56;5005514;28;51039;-48
2021/10/23 00:12:55;;;;;;;;;10.50;8.75;;;;;21.36;42.14;102262.97;5013748;28;51315;-50
2021/10/23 00:15:21;;;;;;;;;9.50;8.00;;;;;21.35;42.09;102268.69;5007937;28;51862;-44
2021/10/23 00:17:46;;;;;;;;;11.75;8.00;;;;;21.35;41.97;102274.19;5006319;28;51134;-49
2021/10/23 00:20:12;;;;;;;;;8.00;6.00;;;;;21.34;41.66;102276.09;5003227;28;51264;-48
2021/10/23 00:22:37;;;;;;;;;6.50;6.50;;;;;21.31;41.62;102274.59;5004075;28;51236;-50
2021/10/23 00:25:04;;;;;;;;;6.75;6.50;;;;;21.30;41.97;102272.88;5009376;28;51932;-48
2021/10/23 00:27:31;;;;;;;;;8.25;7.00;;;;;21.30;42.30;102270.13;5009055;28;50914;-49
2021/10/23 00:29:58;;;;;;;;;10.25;9.00;;;;;21.30;41.79;102283.06;5004659;28;51101;-48
2021/10/23 00:32:24;;;;;;;;;8.75;7.00;;;;;21.27;41.71;102278.78;5010534;28;51155;-45
2021/10/23 00:34:49;;;;;;;;;8.25;7.00;;;;;21.27;42.24;102280.69;5007816;28;52262;-47
2021/10/23 00:37:15;;;;;;;;;8.50;7.00;;;;;21.27;42.11;102281.53;5007575;28;51160;-46
2021/10/23 00:39:40;;;;;;;;;6.25;6.25;;;;;21.25;42.03;102282.72;5004431;28;51200;-47
2021/10/23 00:42:05;;;;;;;;;8.00;5.25;;;;;21.24;42.04;102279.13;4980662;28;51182;-51
2021/10/23 00:44:35;;;;;;;;;8.25;6.00;;;;;21.24;42.02;102283.78;5005654;28;51955;-49
2021/10/23 00:47:05;;;;;;;;;6.25;6.00;;;;;21.24;42.14;102275.50;5007799;28;51867;-49
2021/10/23 00:49:32;;;;;;;;;7.00;6.25;;;;;21.22;41.97;102264.69;5006640;28;51130;-47
2021/10/23 00:51:58;;;;;;;;;9.00;7.75;;;;;21.21;41.68;102274.00;5012099;28;51155;-51
2021/10/23 00:54:26;;;;;;;;;6.00;6.00;;;;;21.21;42.18;102270.41;5004377;28;52700;-50
2021/10/23 00:56:52;;;;;;;;;5.75;5.00;;;;;21.19;42.20;102278.84;5004873;28;51125;-48
2021/10/23 00:59:17;;;;;;;;;6.50;6.00;;;;;21.18;41.86;102279.91;5011392;28;51114;-45
2021/10/23 01:01:43;;;;;;;;;6.00;6.00;;;;;21.18;41.77;102279.06;4998694;28;51234;-50
2021/10/23 01:04:08;;;;;;;;;6.25;6.25;;;;;21.17;41.79;102277.34;4998803;28;51904;-49
2021/10/23 01:06:34;;;;;;;;;5.25;3.25;;;;;21.17;41.86;102266.31;5011670;28;51051;-48
2021/10/23 01:09:00;;;;;;;;;3.50;3.50;;;;;21.15;41.84;102269.25;5013244;28;51115;-51
2021/10/23 01:11:26;;;;;;;;;5.75;4.25;;;;;21.16;41.70;102278.41;5004137;28;51051;-45
2021/10/23 01:13:52;;;;;;;;;7.25;4.75;;;;;21.15;42.01;102277.50;5011253;28;52120;-49
2021/10/23 01:16:17;;;;;;;;;4.75;4.25;;;;;21.13;42.03;102276.84;5004541;28;51135;-45
2021/10/23 01:18:44;;;;;;;;;5.75;4.75;;;;;21.12;41.92;102263.28;5006972;28;51179;-48
2021/10/23 01:21:09;;;;;;;;;4.00;4.00;;;;;21.11;42.02;102270.69;5007474;28;51340;-46
2021/10/23 01:23:35;;;;;;;;;4.00;4.00;;;;;21.11;42.30;102265.19;4999035;28;51475;-51
2021/10/23 01:26:01;;;;;;;;;4.75;4.75;;;;;21.11;41.90;102270.69;5011366;28;51086;-46
2021/10/23 01:28:27;;;;;;;;;4.00;4.00;;;;;21.10;42.25;102260.72;5006084;28;51181;-47
2021/10/23 01:30:56;;;;;;;;;4.00;3.00;;;;;21.10;42.06;102265.38;5008902;28;51304;-50
2021/10/23 01:33:22;;;;;;;;;5.00;4.00;;;;;21.09;41.91;102261.78;5002213;28;51035;-45
2021/10/23 01:35:47;;;;;;;;;5.00;4.75;;;;;21.09;42.03;102259.00;4990889;28;51232;-45
2021/10/23 01:38:13;;;;;;;;;5.75;5.00;;;;;21.08;41.97;102260.06;4998706;28;51131;-49
2021/10/23 01:40:38;;;;;;;;;5.25;4.00;;;;;21.07;41.90;102255.59;5009419;28;51134;-45
2021/10/23 01:43:04;;;;;;;;;6.50;5.00;;;;;21.07;42.05;102252.84;5004719;28;51043;-48
2021/10/23 01:45:30;;;;;;;;;3.50;3.00;;;;;21.06;42.37;102256.66;5004378;28;51179;-50
2021/10/23 01:47:56;;;;;;;;;5.25;4.00;;;;;21.06;42.30;102259.41;5005498;28;51207;-47
2021/10/23 01:50:24;;;;;;;;;4.75;3.00;;;;;21.05;42.42;102252.19;5010977;28;50965;-47
2021/10/23 01:52:50;;;;;;;;;3.25;3.25;;;;;21.04;42.38;102255.97;5004230;28;51905;-48
2021/10/23 01:55:17;;;;;;;;;2.25;2.25;;;;;21.03;42.50;102252.34;5009040;28;51156;-51
2021/10/23 01:57:42;;;;;;;;;4.75;4.75;;;;;21.03;41.99;102246.84;5002562;28;51208;-45
2021/10/23 02:00:09;;;;;;;;;4.50;4.50;;;;;21.03;42.30;102246.00;5006339;28;51300;-50
2021/10/23 02:02:35;;;;;;;;;1.50;1.00;;;;;21.01;42.17;102248.94;5003092;28;51093;-46
2021/10/23 02:05:01;;;;;;;;;2.75;2.25;;;;;21.02;42.13;102247.03;5004946;28;50901;-51
2021/10/23 02:07:28;;;;;;;;;2.50;2.50;;;;;21.01;42.52;102242.59;5003294;28;51242;-47
2021/10/23 02:09:53;;;;;;;;;3.00;3.00;;;;;21.00;41.93;102236.22;5002728;28;50998;-44
2021/10/23 02:12:18;;;;;;;;;3.00;3.00;;;;;21.00;42.10;102236.22;5006625;28;51644;-49
2021/10/23 02:14:44;;;;;;;;;3.00;3.00;;;;;20.99;42.56;102231.75;5003506;28;51240;-46
2021/10/23 02:17:09;;;;;;;;;3.75;3.75;;;;;20.98;42.42;102227.31;5004097;28;51323;-49
2021/10/23 02:19:35;;;;;;;;;2.75;2.25;;;;;20.99;42.53;102230.91;5003889;28;51095;-48
2021/10/23 02:22:00;;;;;;;;;1.00;1.00;;;;;20.98;42.39;102226.44;5003882;28;51712;-48
2021/10/23 02:24:25;;;;;;;;;5.50;4.50;;;;;20.98;42.14;102227.31;5011460;28;51066;-49
2021/10/23 02:26:51;;;;;;;;;3.00;3.00;;;;;20.98;42.46;102218.19;5011367;28;51272;-47
2021/10/23 02:29:16;;;;;;;;;3.00;3.00;;;;;20.96;42.37;102214.78;5001937;28;51134;-45
2021/10/23 02:31:41;;;;;;;;;4.75;4.00;;;;;20.95;42.16;102216.69;5010366;28;51032;-49
2021/10/23 02:34:07;;;;;;;;;3.00;3.00;;;;;20.95;42.12;102215.81;4997627;28;51193;-44
2021/10/23 02:36:32;;;;;;;;;3.00;2.50;;;;;20.95;42.04;102216.69;5006294;28;51109;-49
2021/10/23 02:38:58;;;;;;;;;2.75;2.75;;;;;20.94;42.04;102214.09;5006410;28;51206;-51
2021/10/23 02:41:25;;;;;;;;;2.75;2.75;;;;;20.94;42.05;102217.69;5005525;28;51775;-48
2021/10/23 02:43:51;;;;;;;;;3.00;3.00;;;;;20.94;42.16;102225.09;5003484;28;51292;-49
2021/10/23 02:46:19;;;;;;;;;3.75;3.50;;;;;20.94;42.47;102222.34;5002301;28;51119;-45
2021/10/23 02:48:44;;;;;;;;;3.00;1.25;;;;;20.94;42.16;102233.38;5005348;28;51237;-49
2021/10/23 02:51:09;;;;;;;;;2.25;2.25;;;;;20.91;42.34;102234.63;5002283;28;51864;-51
2021/10/23 02:53:35;;;;;;;;;4.50;2.00;;;;;20.92;42.19;102229.97;5008988;28;51192;-45
2021/10/23 02:56:00;;;;;;;;;3.00;2.00;;;;;20.92;42.18;102235.47;5002198;28;51169;-49
2021/10/23 02:58:25;;;;;;;;;2.75;2.75;;;;;20.90;42.20;102237.56;5008471;28;51232;-50
2021/10/23 03:00:51;;;;;;;;;1.25;1.25;;;;;20.90;42.19;102232.06;5002851;28;51293;-50
2021/10/23 03:03:16;;;;;;;;;1.25;1.25;;;;;20.89;42.36;102233.97;4999366;28;51096;-48
2021/10/23 03:05:42;;;;;;;;;3.50;3.50;;;;;20.89;42.52;102236.72;5008495;28;51306;-44
2021/10/23 03:08:07;;;;;;;;;5.00;3.00;;;;;20.89;42.46;102233.09;5003575;28;51172;-49
2021/10/23 03:10:33;;;;;;;;;3.00;3.00;;;;;20.88;42.06;102231.41;5003419;28;51720;-47
2021/10/23 03:12:58;;;;;;;;;3.00;3.00;;;;;20.89;42.59;102235.88;5010797;28;51152;-46
2021/10/23 03:15:23;;;;;;;;;2.50;1.00;;;;;20.88;42.63;102242.41;5004418;28;51223;-47
2021/10/23 03:17:49;;;;;;;;;2.50;1.00;;;;;20.87;42.38;102240.72;5004531;28;51121;-48
2021/10/23 03:20:15;;;;;;;;;3.00;3.00;;;;;20.87;42.36;102229.69;4999388;28;51936;-47
2021/10/23 03:22:40;;;;;;;;;2.75;1.75;;;;;20.87;42.28;102232.44;4999506;28;51314;-47
2021/10/23 03:25:06;;;;;;;;;4.00;2.75;;;;;20.86;42.62;102234.34;5005325;28;51155;-47
2021/10/23 03:27:31;;;;;;;;;2.50;1.25;;;;;20.86;42.17;102230.75;5001375;28;50881;-48
2021/10/23 03:29:57;;;;;;;;;1.50;1.50;;;;;20.85;42.22;102234.56;5010233;28;51201;-49
2021/10/23 03:32:22;;;;;;;;;3.25;2.00;;;;;20.84;41.97;102227.31;4986966;28;50988;-46
2021/10/23 03:34:48;;;;;;;;;3.00;2.00;;;;;20.85;42.57;102237.31;5003422;28;51346;-50
2021/10/23 03:37:14;;;;;;;;;2.75;2.75;;;;;20.84;42.46;102235.56;5003720;28;51103;-48
2021/10/23 03:39:41;;;;;;;;;1.50;1.50;;;;;20.84;42.15;102227.31;5007256;28;51878;-51
2021/10/23 03:42:07;;;;;;;;;3.25;2.00;;;;;20.83;42.62;102237.47;5014785;28;51525;-48
2021/10/23 03:44:33;;;;;;;;;2.75;2.75;;;;;20.83;42.03;102234.72;4991669;28;51596;-44
2021/10/23 03:46:59;;;;;;;;;3.00;1.50;;;;;20.82;42.20;102235.75;5008774;28;50985;-48
2021/10/23 03:49:24;;;;;;;;;1.25;1.25;;;;;20.82;42.54;102233.00;5003123;28;51592;-47
2021/10/23 03:51:49;;;;;;;;;2.75;2.75;;;;;20.82;42.28;102230.25;5010042;28;50959;-49
2021/10/23 03:54:15;;;;;;;;;2.00;2.00;;;;;20.82;42.21;102235.75;5009284;28;51181;-47
2021/10/23 03:56:40;;;;;;;;;3.00;1.00;;;;;20.81;42.18;102227.69;5007730;28;51031;-45
2021/10/23 03:59:05;;;;;;;;;3.00;2.25;;;;;20.81;42.68;102219.44;5002208;28;51809;-47
2021/10/23 04:01:30;;;;;;;;;3.00;2.00;;;;;20.81;42.75;102225.78;5010832;28;51504;-48
2021/10/23 04:03:56;;;;;;;;;2.00;2.00;;;;;20.79;42.51;102222.38;5004285;28;51155;-44
2021/10/23 04:06:21;;;;;;;;;3.00;3.00;;;;;20.79;42.22;102219.63;5006899;28;50979;-46
2021/10/23 04:08:47;;;;;;;;;1.00;1.00;;;;;20.80;42.48;102220.47;5005960;28;51923;-47
2021/10/23 04:11:12;;;;;;;;;3.75;2.75;;;;;20.78;42.67;102215.16;5007516;28;51175;-48
2021/10/23 04:13:38;;;;;;;;;3.00;2.00;;;;;20.79;42.61;102218.78;5007302;28;51050;-49
2021/10/23 04:16:03;;;;;;;;;2.00;1.00;;;;;20.79;42.57;102224.28;5005920;28;51271;-48
2021/10/23 04:18:29;;;;;;;;;3.75;2.50;;;;;20.79;42.67;102227.03;5005246;28;51065;-44
2021/10/23 04:20:54;;;;;;;;;1.00;1.00;;;;;20.77;42.26;102207.97;5006884;28;51256;-48
2021/10/23 04:23:19;;;;;;;;;1.00;1.00;;;;;20.77;42.47;102216.22;5008373;28;51188;-48
2021/10/23 04:25:45;;;;;;;;;3.50;2.00;;;;;20.77;42.34;102215.38;5005713;28;51436;-47
2021/10/23 04:28:10;;;;;;;;;1.00;1.00;;;;;20.75;42.37;102224.69;5007192;28;51166;-47
2021/10/23 04:30:35;;;;;;;;;3.75;2.50;;;;;20.75;42.73;102216.41;5002943;28;51928;-45
2021/10/23 04:33:01;;;;;;;;;2.50;2.00;;;;;20.75;42.63;102221.94;5005580;28;51060;-47
2021/10/23 04:35:26;;;;;;;;;2.75;1.00;;;;;20.74;42.29;102217.47;5004003;28;52515;-49
2021/10/23 04:37:52;;;;;;;;;3.75;2.25;;;;;20.74;42.51;102216.63;5006120;28;52049;-48
2021/10/23 04:40:17;;;;;;;;;1.75;1.75;;;;;20.75;42.88;102227.44;5007585;28;51143;-45
2021/10/23 04:42:43;;;;;;;;;1.75;1.75;;;;;20.74;42.74;102211.09;5010737;28;51453;-44
2021/10/23 04:45:09;;;;;;;;;1.50;1.50;;;;;20.74;42.38;102228.47;5007654;28;51053;-46
2021/10/23 04:47:35;;;;;;;;;3.00;1.50;;;;;20.73;42.59;102226.75;5003034;28;51660;-44
2021/10/23 04:50:01;;;;;;;;;2.50;2.50;;;;;20.73;42.51;102236.91;5003026;28;51303;-46
2021/10/23 04:52:26;;;;;;;;;2.25;2.25;;;;;20.73;42.50;102225.88;5012981;28;51004;-48
2021/10/23 04:54:51;;;;;;;;;2.00;2.00;;;;;20.72;42.27;102230.53;5003269;28;51330;-46
2021/10/23 04:57:17;;;;;;;;;1.50;1.50;;;;;20.71;42.66;102231.59;5007416;28;51216;-47
2021/10/23 04:59:42;;;;;;;;;1.50;1.50;;;;;20.73;42.47;102234.16;5006535;28;51068;-45
2021/10/23 05:02:07;;;;;;;;;1.00;1.00;;;;;20.70;42.41;102223.53;5009803;28;51009;-51
2021/10/23 05:04:32;;;;;;;;;1.75;1.75;;;;;20.71;42.63;102228.84;5003741;28;51263;-49
2021/10/23 05:06:58;;;;;;;;;2.75;2.50;;;;;20.71;42.80;102227.97;4987724;28;54030;-50
2021/10/23 05:09:23;;;;;;;;;3.75;1.00;;;;;20.70;42.72;102235.41;5001431;28;51119;-45
2021/10/23 05:11:48;;;;;;;;;2.50;2.00;;;;;20.70;42.77;102234.53;5005440;28;51154;-47
2021/10/23 05:14:14;;;;;;;;;3.00;2.00;;;;;20.70;42.40;102235.41;5005080;28;51138;-50
2021/10/23 05:16:39;;;;;;;;;2.50;2.50;;;;;20.69;42.96;102238.34;5010450;28;51086;-48
2021/10/23 05:19:05;;;;;;;;;2.75;1.25;;;;;20.69;42.54;102241.94;5007129;28;51218;-49
2021/10/23 05:21:31;;;;;;;;;2.00;2.00;;;;;20.69;42.78;102241.09;5003111;28;51510;-52
2021/10/23 05:23:58;;;;;;;;;2.25;2.00;;;;;20.69;42.77;102241.09;5015011;28;51251;-46
2021/10/23 05:26:23;;;;;;;;;2.00;2.00;;;;;20.68;42.93;102254.00;5011818;28;51171;-48
2021/10/23 05:28:48;;;;;;;;;1.00;1.00;;;;;20.68;42.75;102244.91;4987592;28;51365;-48
2021/10/23 05:31:14;;;;;;;;;1.00;1.00;;;;;20.66;42.64;102239.59;5001820;28;51218;-48
2021/10/23 05:33:39;;;;;;;;;1.50;1.50;;;;;20.68;42.79;102239.38;5009656;28;50928;-51
2021/10/23 05:36:04;;;;;;;;;1.75;1.75;;;;;20.66;42.87;102242.34;5003026;28;51979;-48
2021/10/23 05:38:30;;;;;;;;;3.00;2.00;;;;;20.67;42.71;102245.94;5013031;28;51066;-46
2021/10/23 05:40:55;;;;;;;;;1.75;1.75;;;;;20.66;42.39;102242.34;5006644;28;51141;-50
2021/10/23 05:43:21;;;;;;;;;3.00;3.00;;;;;20.67;42.95;102237.69;5000467;28;51202;-45
2021/10/23 05:45:47;;;;;;;;;3.25;2.00;;;;;20.66;42.90;102236.84;5013707;28;50941;-46
2021/10/23 05:48:13;;;;;;;;;2.00;1.00;;;;;20.66;42.50;102247.84;5004508;28;50988;-50
2021/10/23 05:50:38;;;;;;;;;3.00;1.25;;;;;20.65;42.82;102240.63;4988161;28;51251;-47
2021/10/23 05:53:03;;;;;;;;;2.50;2.00;;;;;20.65;42.59;102240.63;5001217;28;51110;-44
2021/10/23 05:55:29;;;;;;;;;2.00;2.00;;;;;20.65;42.56;102237.03;5002710;28;51260;-50
2021/10/23 05:57:54;;;;;;;;;1.00;1.00;;;;;20.65;42.62;102239.78;5005070;28;51301;-49
2021/10/23 06:00:19;;;;;;;;;1.00;1.00;;;;;20.63;42.48;102248.19;5004998;28;51188;-48
2021/10/23 06:02:46;;;;;;;;;1.00;1.00;;;;;20.63;42.48;102241.84;5005531;28;51170;-45
2021/10/23 06:05:12;;;;;;;;;3.00;1.75;;;;;20.63;42.79;102245.44;4997834;28;51253;-44
2021/10/23 06:07:40;;;;;;;;;1.25;1.25;;;;;20.62;42.82;102245.66;5004056;28;51049;-51
2021/10/23 06:10:09;;;;;;;;;2.00;2.00;;;;;20.62;42.86;102248.41;5011707;28;51263;-50
2021/10/23 06:12:35;;;;;;;;;2.50;1.25;;;;;20.62;42.82;102254.75;5004121;28;51145;-47
2021/10/23 06:15:00;;;;;;;;;1.75;1.50;;;;;20.62;43.07;102260.25;5005730;28;51152;-47
2021/10/23 06:17:27;;;;;;;;;2.50;2.00;;;;;20.62;42.73;102265.78;5008464;28;51314;-47
2021/10/23 06:19:53;;;;;;;;;4.75;1.25;;;;;20.60;42.59;102262.34;5003746;28;51095;-47
2021/10/23 06:22:18;;;;;;;;;3.75;2.25;;;;;20.59;42.80;102257.91;5004344;28;51015;-48
2021/10/23 06:24:43;;;;;;;;;2.00;1.00;;;;;20.59;42.52;102266.16;5001962;28;51597;-47
2021/10/23 06:27:09;;;;;;;;;1.25;1.25;;;;;20.59;42.82;102268.06;5004974;28;51284;-48
2021/10/23 06:29:34;;;;;;;;;1.00;1.00;;;;;20.60;42.54;102273.38;5008013;28;51148;-45
2021/10/23 06:32:00;;;;;;;;;2.00;2.00;;;;;20.59;42.76;102282.69;5007121;28;51075;-45
2021/10/23 06:34:26;;;;;;;;;5.25;3.00;;;;;20.61;42.35;102279.72;5008393;28;51707;-46
2021/10/23 06:36:51;;;;;;;;;2.00;2.00;;;;;20.61;41.97;102285.25;5003118;28;51270;-45
2021/10/23 06:39:16;;;;;;;;;3.00;3.00;;;;;20.60;41.73;102292.63;5008322;28;51127;-46
2021/10/23 06:41:42;;;;;;;;;3.25;2.50;;;;;20.58;41.61;102291.13;5004009;28;51205;-46
2021/10/23 06:44:08;;;;;;;;;5.00;4.00;;;;;20.57;41.55;102292.19;5009865;28;51090;-46
2021/10/23 06:46:35;;;;;;;;;2.00;2.00;;;;;20.54;41.42;102293.41;5002327;28;51087;-47
2021/10/23 06:49:00;;;;;;;;;4.50;3.00;;;;;20.54;41.59;102293.41;5003219;28;51154;-48
2021/10/23 06:51:26;;;;;;;;;2.75;2.50;;;;;20.52;41.09;102292.72;5007978;28;51247;-49
2021/10/23 06:53:56;;;;;;;;;6.00;3.00;;;;;20.54;41.22;102290.66;5000373;28;52059;-43
2021/10/23 06:56:22;;;;;;;;;5.00;2.00;;;;;20.62;41.43;102296.06;5007466;28;50934;-49
2021/10/23 06:58:48;;;;;;;;;3.00;3.00;;;;;20.72;41.03;102295.78;5003554;28;51132;-45
2021/10/23 07:01:13;;;;;;;;;1.00;1.00;;;;;20.84;41.38;102301.66;5003280;28;51324;-46
2021/10/23 07:03:39;;;;;;;;;3.00;3.00;;;;;20.93;41.27;102304.13;5001446;28;52190;-47
2021/10/23 07:06:04;;;;;;;;;3.00;2.50;;;;;21.05;41.25;102315.56;5006312;28;51222;-51
2021/10/23 07:08:29;;;;;;;;;3.75;2.00;;;;;21.17;41.47;102313.19;5004488;28;51137;-45
2021/10/23 07:10:55;;;;;;;;;3.00;1.50;;;;;21.26;40.83;102314.81;5005642;28;51154;-44
2021/10/23 07:13:20;;;;;;;;;3.00;3.00;;;;;21.33;40.97;102319.34;5010399;28;51102;-49
2021/10/23 07:15:46;;;;;;;;;4.25;3.75;;;;;21.42;41.28;102325.59;5013504;28;51234;-49
2021/10/23 07:18:11;;;;;;;;;1.75;1.75;;;;;21.52;41.46;102325.31;5004122;28;51151;-45
2021/10/23 07:20:36;;;;;;;;;2.25;2.00;;;;;21.56;41.19;102327.47;5005230;28;51134;-50
2021/10/23 07:23:03;;;;;;;;;5.00;3.00;;;;;21.58;41.11;102336.44;5007497;28;52036;-49
2021/10/23 07:25:28;;;;;;;;;3.00;2.00;;;;;21.58;41.27;102335.56;5013505;28;51141;-46
2021/10/23 07:27:54;;;;;;;;;3.75;1.75;;;;;21.56;41.68;102343.16;5005412;28;51240;-51
2021/10/23 07:30:19;;;;;;;;;2.50;2.50;;;;;21.53;41.14;102343.56;4982641;28;51147;-50
2021/10/23 07:32:45;;;;;;;;;1.75;1.75;;;;;21.51;41.68;102354.78;5009010;28;51449;-47
2021/10/23 07:35:11;;;;;;;;;4.75;2.25;;;;;21.47;41.25;102355.38;5007525;28;51297;-47
2021/10/23 07:37:37;;;;;;;;;3.00;2.00;;;;;21.47;41.56;102355.38;5001162;28;51210;-46
2021/10/23 07:40:05;;;;;;;;;2.50;2.25;;;;;21.51;41.87;102363.06;5001901;28;51451;-44
2021/10/23 07:42:30;;;;;;;;;2.50;1.75;;;;;21.58;41.28;102365.91;5009062;28;51963;-49
2021/10/23 07:45:00;;;;;;;;;3.00;3.00;;;;;21.65;41.54;102363.22;5008331;28;50996;-46
2021/10/23 07:47:25;;;;;;;;;2.25;2.25;;;;;21.66;41.51;102351.97;5007019;28;51289;-49
2021/10/23 07:49:51;;;;;;;;;1.50;1.25;;;;;21.67;41.01;102367.47;5011618;28;51168;-44
2021/10/23 07:52:17;;;;;;;;;4.50;4.50;;;;;21.65;41.05;102364.06;5004565;28;51081;-48
2021/10/23 07:54:42;;;;;;;;;3.00;3.00;;;;;21.64;41.54;102369.78;5003754;28;51161;-48
2021/10/23 07:57:08;;;;;;;;;2.00;2.00;;;;;21.62;41.72;102378.25;5010487;28;51127;-51
2021/10/23 07:59:33;;;;;;;;;4.00;2.00;;;;;21.60;41.12;102383.09;5008574;28;51222;-48
2021/10/23 08:02:00;;;;;;;;;3.50;3.25;;;;;21.57;41.67;102380.72;5010031;28;52466;-46
2021/10/23 08:04:28;;;;;;;;;3.00;2.50;;;;;21.55;41.66;102380.06;5008683;28;51749;-48
2021/10/23 08:06:54;;;;;;;;;3.50;2.00;;;;;21.58;41.24;102380.53;5007552;28;51011;-47
2021/10/23 08:09:20;;;;;;;;;2.25;2.25;;;;;21.64;41.68;102384.41;5012833;28;51340;-47
2021/10/23 08:11:45;;;;;;;;;3.75;3.00;;;;;21.71;41.16;102385.34;5008150;28;51782;-47
2021/10/23 08:14:12;;;;;;;;;2.50;2.50;;;;;21.80;41.21;102380.59;5010716;28;51513;-43
2021/10/23 08:16:37;;;;;;;;;3.50;2.00;;;;;21.83;41.42;102372.78;5007067;28;51166;-50
2021/10/23 08:19:03;;;;;;;;;0.50;0.50;;;;;21.85;41.56;102381.69;5004259;28;50971;-48
2021/10/23 08:21:29;;;;;;;;;1.75;1.75;;;;;21.85;41.51;102375.31;5005526;28;51605;-50
2021/10/23 08:23:54;;;;;;;;;1.25;1.25;;;;;21.85;41.46;102373.41;4998461;28;51161;-46
2021/10/23 08:26:20;;;;;;;;;2.25;2.25;;;;;21.84;41.49;102373.63;5007882;28;51177;-49
2021/10/23 08:28:45;;;;;;;;;2.50;2.50;;;;;21.81;41.28;102369.34;5006953;28;51411;-48
2021/10/23 08:31:11;;;;;;;;;3.00;2.00;;;;;21.81;41.54;102363.84;5008299;28;51049;-44
2021/10/23 08:33:37;;;;;;;;;3.50;2.00;;;;;21.82;41.76;102371.06;4999885;28;51458;-54
2021/10/23 08:36:02;;;;;;;;;2.50;2.50;;;;;21.86;41.59;102369.59;5004255;28;51156;-49
2021/10/23 08:38:28;;;;;;;;;2.50;1.25;;;;;21.87;41.24;102374.06;5012959;28;51032;-50
2021/10/23 08:40:53;;;;;;;;;1.50;1.50;;;;;21.87;41.38;102368.56;5010212;28;51105;-44
2021/10/23 08:43:20;;;;;;;;;2.75;2.00;;;;;21.86;41.08;102374.28;5000060;28;51206;-43
2021/10/23 08:45:48;;;;;;;;;4.00;2.00;;;;;21.86;41.42;102371.50;5007349;28;50959;-45
2021/10/23 08:48:15;;;;;;;;;2.25;2.25;;;;;21.83;40.92;102375.53;5007027;28;51397;-46
2021/10/23 08:50:41;;;;;;;;;1.00;1.00;;;;;21.85;41.61;102370.66;5002077;28;51288;-46
2021/10/23 08:53:08;;;;;;;;;5.25;2.00;;;;;21.92;41.82;102373.50;5003211;28;51421;-49
2021/10/23 08:55:33;;;;;;;;;2.75;2.00;;;;;21.98;41.59;102375.47;5008018;28;51222;-48
2021/10/23 08:57:58;;;;;;;;;3.00;2.25;;;;;22.03;41.76;102378.50;5005964;28;50987;-47
2021/10/23 09:00:25;;;;;;;;;4.00;1.00;;;;;22.06;41.67;102382.78;5006787;28;51310;-49
2021/10/23 09:02:51;;;;;;;;;5.50;2.50;;;;;22.04;42.30;102391.25;5006196;28;51027;-48
2021/10/23 09:05:17;;;;;;;;;3.00;3.00;;;;;22.03;41.51;102380.41;5000606;28;51440;-49
2021/10/23 09:07:48;;;;;;;;;3.00;3.00;;;;;22.02;41.58;102381.47;5004257;28;51113;-45
2021/10/23 09:10:23;;;;;;;;;4.00;2.75;;;;;21.98;41.21;102382.88;5004946;28;51831;-48
2021/10/23 09:12:58;;;;;;;;;3.50;3.25;;;;;21.96;41.58;102382.25;5006724;28;51161;-45
2021/10/23 09:15:23;;;;;;;;;3.75;2.50;;;;;21.93;41.16;102374.34;5007610;28;51210;-49
2021/10/23 09:17:53;;;;;;;;;2.00;1.75;;;;;21.96;41.06;102379.47;5004192;28;51126;-43
2021/10/23 09:20:22;;;;;;;;;3.00;2.50;;;;;22.00;41.42;102381.66;5008657;28;51051;-49
2021/10/23 09:22:49;;;;;;;;;5.00;3.25;;;;;22.07;41.38;102379.00;5009897;28;51385;-47
2021/10/23 09:25:18;;;;;;;;;3.75;3.75;;;;;22.12;40.67;102382.88;5004403;28;51118;-48
2021/10/23 09:27:52;;;;;;;;;7.00;2.75;;;;;22.13;40.60;102373.56;5011156;28;51128;-48
2021/10/23 09:30:21;;;;;;;;;2.00;2.00;;;;;22.13;40.93;102380.97;5003805;28;51115;-46
2021/10/23 09:32:54;;;;;;;;;2.75;2.75;;;;;22.10;40.95;102376.72;4998278;28;51370;-49
2021/10/23 09:35:22;;;;;;;;;3.25;2.00;;;;;22.08;40.65;102378.78;5003579;28;51103;-46
2021/10/23 09:37:49;;;;;;;;;2.00;2.00;;;;;22.06;40.95;102377.25;5004037;28;51057;-46
2021/10/23 09:40:20;;;;;;;;;3.50;2.50;;;;;22.03;40.67;102374.91;5003582;28;52022;-46
2021/10/23 09:42:46;;;;;;;;;4.00;1.00;;;;;22.00;40.95;102378.91;5002869;28;51220;-50
2021/10/23 09:45:12;;;;;;;;;3.25;2.50;;;;;21.97;40.74;102372.91;5011353;28;51177;-44
2021/10/23 09:47:46;;;;;;;;;4.00;4.00;;;;;21.95;41.08;102375.00;5004024;28;51134;-50
2021/10/23 09:50:21;;;;;;;;;4.00;3.50;;;;;21.95;40.61;102377.78;5004674;28;51240;-47
2021/10/23 09:52:52;;;;;;;;;4.25;2.50;;;;;22.00;40.53;102378.91;4999803;28;51124;-48
2021/10/23 09:55:18;;;;;;;;;2.50;2.50;;;;;22.07;40.54;102371.56;5006003;28;51109;-48
2021/10/23 09:57:43;;;;;;;;;4.25;3.00;;;;;22.14;40.25;102372.50;5006065;28;51158;-46
2021/10/23 10:00:11;;;;;;;;;2.00;2.00;;;;;22.18;40.20;102372.94;5001388;28;51999;-45
2021/10/23 10:02:38;;;;;;;;;3.00;2.75;;;;;22.19;40.63;102371.91;5003201;28;51399;-47
2021/10/23 10:05:04;;;;;;;;;3.00;2.25;;;;;22.18;40.70;102370.19;5004579;28;51205;-46
2021/10/23 10:07:32;;;;;;;;;3.50;3.50;;;;;22.17;40.45;102366.56;5003376;28;51183;-48
2021/10/23 10:09:59;;;;;;;;;3.50;2.50;;;;;22.14;40.56;102377.16;5002114;28;51089;-48
2021/10/23 10:12:25;;;;;;;;;3.50;3.50;;;;;22.12;40.37;102376.50;4997565;28;51480;-45
2021/10/23 10:14:51;;;;;;;;;3.50;2.50;;;;;22.09;40.08;102371.38;5007789;28;51077;-46
2021/10/23 10:17:17;;;;;;;;;5.75;4.50;;;;;22.06;40.20;102380.91;5003154;28;51294;-50
2021/10/23 10:19:43;;;;;;;;;2.75;2.25;;;;;22.05;40.70;102372.78;5002039;28;52027;-50
2021/10/23 10:22:08;;;;;;;;;3.00;2.00;;;;;22.04;40.24;102379.38;5008393;28;51152;-49
2021/10/23 10:24:38;;;;;;;;;3.00;2.00;;;;;22.02;40.67;102373.19;5001259;28;51082;-47
2021/10/23 10:27:19;;;;;;;;;3.00;3.00;;;;;22.06;41.03;102374.50;5006340;28;51053;-48
2021/10/23 10:29:57;;;;;;;;;3.75;3.00;;;;;22.06;40.57;102371.72;5005174;28;52828;-47
2021/10/23 10:32:29;;;;;;;;;2.25;2.25;;;;;22.05;40.74;102379.16;5010456;28;51114;-50
2021/10/23 10:38:00;;;;;;;;;2.25;2.25;;;;;22.05;40.52;102376.41;5001324;28;51587;-48
2021/10/23 10:40:45;;;;;;;;;4.25;4.00;;;;;22.06;41.71;102371.72;5004480;28;52982;-47
2021/10/23 10:43:15;;;;;;;;;4.50;4.25;;;;;22.07;41.44;102374.31;4996758;28;51183;-50
2021/10/23 10:45:46;;;;;;;;;5.25;2.50;;;;;22.10;42.29;102370.34;4997160;28;51157;-50
2021/10/23 10:48:27;;;;;;;;;7.00;3.00;;;;;22.11;41.78;102369.28;5005999;28;51001;-51
2021/10/23 10:50:56;;;;;;;;;5.75;4.25;;;;;22.13;42.02;102364.41;5003098;28;52833;-48
2021/10/23 10:53:29;;;;;;;;;7.75;6.00;;;;;22.15;42.82;102367.84;4998200;28;51402;-49
2021/10/23 10:56:04;;;;;;;;;8.50;7.00;;;;;22.16;42.75;102361.25;4985979;28;51265;-45
2021/10/23 10:58:41;;;;;;;;;16.75;13.00;;;;;22.18;43.54;102359.16;5005374;28;51284;-48
2021/10/23 11:01:14;;;;;;;;;10.50;10.00;;;;;22.19;43.10;102347.91;5008600;28;52602;-50
2021/10/23 11:03:47;;;;;;;;;11.25;7.75;;;;;22.22;43.21;102346.69;5003215;28;51309;-48
2021/10/23 11:06:37;;;;;;;;;6.00;6.00;;;;;22.24;43.40;102347.34;5003463;28;51141;-50
2021/10/23 11:09:11;;;;;;;;;7.00;6.75;;;;;22.25;43.69;102343.50;5004015;28;51273;-50
2021/10/23 11:11:42;;;;;;;;;6.00;6.00;;;;;22.27;43.85;102341.41;5006489;28;51752;-52
2021/10/23 11:14:08;;;;;;;;;8.00;6.75;;;;;22.29;43.38;102339.28;4999341;28;51136;-47
2021/10/23 11:16:35;;;;;;;;;4.00;4.00;;;;;22.30;43.37;102343.78;4996222;28;51243;-48
2021/10/23 11:19:02;;;;;;;;;7.00;7.00;;;;;22.31;43.44;102341.88;5002305;28;51149;-46
2021/10/23 11:21:28;;;;;;;;;7.00;6.00;;;;;22.32;44.19;102338.06;5006965;28;51046;-47
2021/10/23 11:23:54;;;;;;;;;5.00;5.00;;;;;22.32;43.67;102332.53;5005295;28;51236;-49